Time;durP1;ratioP1;P1;durP2;ratioP2;P2;SDS_P1;SDS_P2;PMS_P1;PMS_P2;Temp;Humidity;BMP_temperature;BMP_pressure;BME280_temperature;BME280_humidity;BME280_pressure;Samples;Min_cycle;Max_cycle;Signal;HPM_P1;HPM_P2
2023/03/02 00:02:00;;;;;;;64.83;30.13;;;2.00;99.90;;;;;;5091062;28;20205;-70
2023/03/02 00:04:33;;;;;;;62.83;31.67;;;1.90;99.90;;;;;;5090715;28;20209;-69
2023/03/02 00:07:06;;;;;;;78.33;39.60;;;1.80;99.90;;;;;;5090441;28;20227;-71
2023/03/02 00:09:37;;;;;;;81.33;39.20;;;1.70;99.90;;;;;;5090540;28;20203;-69
2023/03/02 00:12:08;;;;;;;86.67;41.63;;;1.80;99.90;;;;;;5090305;28;20201;-74
2023/03/02 00:14:37;;;;;;;86.53;42.10;;;1.80;99.90;;;;;;5069648;28;20235;-71
2023/03/02 00:17:09;;;;;;;86.70;42.30;;;1.80;99.90;;;;;;5081671;28;20203;-71
2023/03/02 00:19:39;;;;;;;85.30;42.10;;;1.70;99.90;;;;;;5078105;28;20209;-70
2023/03/02 00:22:07;;;;;;;92.60;46.93;;;1.80;99.90;;;;;;5078648;28;20203;-68
2023/03/02 00:24:40;;;;;;;84.77;42.97;;;1.80;99.90;;;;;;5070180;28;20287;-68
2023/03/02 00:27:08;;;;;;;75.63;38.57;;;1.70;99.90;;;;;;5069134;28;20205;-68
2023/03/02 00:29:37;;;;;;;60.90;34.70;;;1.70;99.90;;;;;;5070376;28;20199;-72
2023/03/02 00:32:07;;;;;;;78.10;37.33;;;1.70;99.90;;;;;;5068551;28;20769;-70
2023/03/02 00:34:36;;;;;;;79.97;40.13;;;1.60;99.90;;;;;;5079210;28;20202;-68
2023/03/02 00:37:06;;;;;;;83.53;41.03;;;1.50;99.90;;;;;;5070638;28;20197;-71
2023/03/02 00:39:34;;;;;;;87.90;40.33;;;1.40;99.90;;;;;;5036015;28;20225;-70
2023/03/02 00:42:05;;;;;;;81.90;41.07;;;1.40;99.90;;;;;;5070295;28;20198;-71
2023/03/02 00:44:34;;;;;;;72.83;39.03;;;1.50;99.90;;;;;;5069370;28;20198;-70
2023/03/02 00:47:03;;;;;;;95.73;43.50;;;1.50;99.90;;;;;;5069819;28;20212;-70
2023/03/02 00:49:32;;;;;;;76.53;39.50;;;1.60;99.90;;;;;;5057845;28;20200;-70
2023/03/02 00:52:01;;;;;;;81.83;39.87;;;1.60;99.90;;;;;;5072022;28;20232;-70
2023/03/02 00:54:30;;;;;;;85.47;39.57;;;1.60;99.90;;;;;;5090414;28;20207;-70
2023/03/02 00:56:59;;;;;;;80.43;43.13;;;1.60;99.90;;;;;;5090430;28;20198;-70
2023/03/02 00:59:29;;;;;;;90.27;43.23;;;1.60;99.90;;;;;;5090420;28;20196;-71
2023/03/02 01:02:06;;;;;;;92.03;44.97;;;1.60;99.90;;;;;;5074757;28;20218;-70
2023/03/02 01:04:39;;;;;;;87.10;42.87;;;1.60;99.90;;;;;;5076011;28;20209;-69
2023/03/02 01:07:09;;;;;;;84.77;42.97;;;1.60;99.90;;;;;;5094354;28;20681;-73
2023/03/02 01:09:39;;;;;;;98.93;44.20;;;1.50;99.90;;;;;;5093744;28;20279;-73
2023/03/02 01:12:10;;;;;;;103.60;45.83;;;1.50;99.90;;;;;;5094105;28;20219;-72
2023/03/02 01:14:43;;;;;;;100.40;47.10;;;1.50;99.90;;;;;;5094681;28;20227;-72
2023/03/02 01:17:12;;;;;;;105.97;51.00;;;1.50;99.90;;;;;;5094344;28;20204;-69
2023/03/02 01:19:45;;;;;;;112.53;51.40;;;1.50;99.90;;;;;;5084198;28;20193;-69
2023/03/02 01:22:14;;;;;;;100.93;49.30;;;1.50;99.90;;;;;;5083925;28;20199;-70
2023/03/02 01:24:44;;;;;;;110.93;51.50;;;1.50;99.90;;;;;;5056114;28;20227;-70
2023/03/02 01:27:13;;;;;;;104.27;50.77;;;1.40;99.90;;;;;;5074189;28;20193;-72
2023/03/02 01:29:43;;;;;;;105.70;49.77;;;1.40;99.90;;;;;;5074215;28;20193;-72
2023/03/02 01:32:12;;;;;;;98.30;50.97;;;1.40;99.90;;;;;;5072817;28;20224;-69
2023/03/02 01:34:41;;;;;;;103.63;52.93;;;1.40;99.90;;;;;;5072458;28;20641;-70
2023/03/02 01:37:10;;;;;;;104.80;51.80;;;1.40;99.90;;;;;;5074142;28;20550;-69
2023/03/02 01:39:39;;;;;;;104.77;50.87;;;1.30;99.90;;;;;;5073891;28;20206;-69
2023/03/02 01:42:08;;;;;;;103.60;52.50;;;1.20;99.90;;;;;;5073959;28;20240;-73
2023/03/02 01:44:44;;;;;;;108.07;52.70;;;1.10;99.90;;;;;;5072705;28;20567;-70
2023/03/02 01:47:19;;;;;;;106.60;52.93;;;1.00;99.90;;;;;;5073881;28;20736;-71
2023/03/02 01:50:15;;;;;;;105.10;54.20;;;1.00;99.90;;;;;;5072584;28;20199;-72
2023/03/02 01:52:44;;;;;;;96.77;49.60;;;1.00;99.90;;;;;;5055765;28;20229;-71
2023/03/02 01:55:17;;;;;;;105.70;53.43;;;1.00;99.90;;;;;;5055968;28;20281;-71
2023/03/02 01:57:49;;;;;;;107.57;52.63;;;1.00;99.90;;;;;;5073704;28;20199;-69
2023/03/02 02:00:24;;;;;;;105.33;54.37;;;1.10;99.90;;;;;;5072310;28;20213;-70
2023/03/02 02:02:55;;;;;;;111.33;55.10;;;1.10;99.90;;;;;;5072258;28;20201;-70
2023/03/02 02:05:26;;;;;;;111.30;56.67;;;1.20;99.90;;;;;;5072294;28;20666;-70
2023/03/02 02:07:55;;;;;;;104.93;51.20;;;1.10;99.90;;;;;;5073456;28;20749;-70
2023/03/02 02:10:24;;;;;;;83.70;41.57;;;1.00;99.90;;;;;;5071617;28;20205;-70
2023/03/02 02:12:53;;;;;;;90.90;45.37;;;0.90;99.90;;;;;;5071791;28;20249;-70
2023/03/02 02:15:23;;;;;;;77.07;37.47;;;0.90;99.90;;;;;;5071539;28;20206;-69
2023/03/02 02:17:54;;;;;;;85.93;42.00;;;0.90;99.90;;;;;;5073294;28;20196;-70
2023/03/02 02:20:30;;;;;;;84.70;43.47;;;0.80;99.90;;;;;;5073330;28;20226;-69
2023/03/02 02:23:17;;;;;;;101.93;46.53;;;0.80;99.90;;;;;;5073139;28;20280;-74
2023/03/02 02:26:00;;;;;;;84.10;41.77;;;0.80;99.90;;;;;;5073232;28;20317;-71
2023/03/02 02:28:34;;;;;;;74.20;40.70;;;0.80;99.90;;;;;;5055196;28;20208;-74
2023/03/02 02:31:09;;;;;;;91.70;42.93;;;0.90;99.90;;;;;;5073061;28;20222;-71
2023/03/02 02:33:41;;;;;;;103.70;48.20;;;0.90;99.90;;;;;;5071618;28;20220;-69
2023/03/02 02:36:16;;;;;;;83.10;42.70;;;0.90;99.90;;;;;;5072887;28;20207;-75
2023/03/02 02:38:47;;;;;;;82.20;43.83;;;0.90;99.90;;;;;;5082759;28;20203;-70
2023/03/02 02:41:24;;;;;;;90.70;48.10;;;0.90;99.90;;;;;;5079394;28;20561;-71
2023/03/02 02:43:54;;;;;;;93.77;47.90;;;0.90;99.90;;;;;;5071424;28;20201;-70
2023/03/02 02:46:23;;;;;;;98.13;48.23;;;1.00;99.90;;;;;;5072746;28;20189;-69
2023/03/02 02:48:52;;;;;;;77.10;40.63;;;0.90;99.90;;;;;;5072535;28;20256;-69
2023/03/02 02:51:25;;;;;;;51.40;27.13;;;0.90;99.90;;;;;;5072509;28;20239;-69
2023/03/02 02:53:57;;;;;;;38.93;21.57;;;0.80;99.90;;;;;;5072535;28;20198;-73
2023/03/02 02:56:34;;;;;;;23.93;13.90;;;0.90;99.90;;;;;;5071192;28;20204;-73
2023/03/02 02:59:13;;;;;;;45.87;23.77;;;0.90;99.90;;;;;;5054522;28;20196;-69
2023/03/02 03:01:42;;;;;;;55.53;28.27;;;1.00;99.90;;;;;;5071176;28;20206;-72
2023/03/02 03:04:14;;;;;;;63.50;32.17;;;1.10;99.90;;;;;;5071019;28;20725;-70
2023/03/02 03:06:52;;;;;;;62.77;32.83;;;0.90;99.90;;;;;;5071169;28;20212;-69
2023/03/02 03:09:21;;;;;;;79.13;39.07;;;0.90;99.90;;;;;;5054073;28;20725;-69
2023/03/02 03:11:54;;;;;;;74.83;38.47;;;0.90;99.90;;;;;;5072355;28;20217;-70
2023/03/02 03:14:28;;;;;;;77.37;39.07;;;0.80;99.90;;;;;;5072176;28;20189;-73
2023/03/02 03:16:57;;;;;;;78.37;42.93;;;0.80;99.90;;;;;;5054190;28;20197;-71
2023/03/02 03:19:28;;;;;;;85.13;42.47;;;0.90;99.90;;;;;;5072114;28;20212;-71
2023/03/02 03:21:59;;;;;;;77.37;38.27;;;0.80;99.90;;;;;;5070886;28;20749;-73
2023/03/02 03:24:33;;;;;;;78.93;39.87;;;0.80;99.90;;;;;;5073056;28;20200;-74
2023/03/02 03:27:06;;;;;;;75.13;37.17;;;0.80;99.90;;;;;;5054038;28;20299;-70
2023/03/02 03:29:41;;;;;;;67.83;38.07;;;0.80;99.90;;;;;;5070647;28;20205;-70
2023/03/02 03:32:11;;;;;;;73.47;36.73;;;0.80;99.90;;;;;;5070543;28;20221;-75
2023/03/02 03:34:40;;;;;;;63.47;36.60;;;0.80;99.90;;;;;;5070599;28;20208;-74
2023/03/02 03:37:22;;;;;;;67.13;38.43;;;0.70;99.90;;;;;;5070523;28;20201;-74
2023/03/02 03:39:51;;;;;;;82.97;38.53;;;0.70;99.90;;;;;;5071644;28;20279;-69
2023/03/02 03:42:23;;;;;;;72.67;35.63;;;0.70;99.90;;;;;;5053785;28;20198;-74
2023/03/02 03:44:53;;;;;;;66.83;33.50;;;0.70;99.90;;;;;;5070396;28;20618;-74
2023/03/02 03:47:22;;;;;;;71.27;33.77;;;0.60;99.90;;;;;;5053451;28;20228;-68
2023/03/02 03:49:52;;;;;;;64.63;34.10;;;0.60;99.90;;;;;;5070275;28;20291;-69
2023/03/02 03:52:29;;;;;;;60.97;33.23;;;0.70;99.90;;;;;;5053641;28;20228;-75
2023/03/02 03:55:07;;;;;;;61.70;32.90;;;0.70;99.90;;;;;;5053560;28;20667;-68
2023/03/02 03:57:38;;;;;;;57.40;30.07;;;0.70;99.90;;;;;;5071782;28;20193;-74
2023/03/02 04:00:13;;;;;;;48.37;25.60;;;0.70;99.90;;;;;;5070442;28;20197;-69
2023/03/02 04:02:47;;;;;;;47.77;26.83;;;0.70;99.90;;;;;;5071521;28;20241;-69
2023/03/02 04:05:16;;;;;;;50.10;25.77;;;0.60;99.90;;;;;;5070163;28;20228;-71
2023/03/02 04:07:45;;;;;;;51.90;27.97;;;0.60;99.90;;;;;;5070244;28;20205;-70
2023/03/02 04:10:14;;;;;;;53.20;27.87;;;0.60;99.90;;;;;;5071329;28;20222;-69
2023/03/02 04:12:46;;;;;;;64.27;30.27;;;0.70;99.90;;;;;;5070166;28;20225;-72
2023/03/02 04:15:17;;;;;;;36.13;19.70;;;0.70;99.90;;;;;;5053274;28;20662;-70
2023/03/02 04:17:48;;;;;;;41.17;22.57;;;0.70;99.90;;;;;;5069926;28;20259;-71
2023/03/02 04:20:20;;;;;;;34.40;17.33;;;0.70;99.90;;;;;;5070219;28;20212;-70
2023/03/02 04:22:53;;;;;;;33.10;17.90;;;0.70;99.90;;;;;;5071498;28;20252;-68
2023/03/02 04:25:25;;;;;;;22.40;11.40;;;0.70;99.90;;;;;;5069986;28;20258;-69
2023/03/02 04:28:00;;;;;;;27.33;15.90;;;0.80;99.90;;;;;;5070052;28;20833;-69
2023/03/02 04:30:34;;;;;;;30.07;16.20;;;0.80;99.90;;;;;;5053396;28;20629;-69
2023/03/02 04:33:03;;;;;;;21.43;12.47;;;0.80;99.90;;;;;;5069930;28;20306;-69
2023/03/02 04:35:33;;;;;;;18.50;10.33;;;0.90;99.90;;;;;;5055268;28;20287;-69
2023/03/02 04:38:03;;;;;;;18.07;9.03;;;0.90;99.90;;;;;;5073903;28;20205;-69
2023/03/02 04:40:32;;;;;;;15.33;8.57;;;0.90;99.90;;;;;;5057070;28;20204;-69
2023/03/02 04:43:02;;;;;;;13.30;7.57;;;1.00;99.90;;;;;;5075132;28;20244;-70
2023/03/02 04:45:31;;;;;;;15.00;7.73;;;1.00;99.90;;;;;;5075061;28;20259;-70
2023/03/02 04:48:00;;;;;;;18.37;8.10;;;1.00;99.90;;;;;;5074735;28;20260;-71
2023/03/02 04:50:29;;;;;;;9.07;6.53;;;1.10;99.90;;;;;;5074934;28;20191;-68
2023/03/02 04:52:57;;;;;;;10.43;6.67;;;1.10;99.90;;;;;;5075408;28;20331;-69
2023/03/02 04:55:28;;;;;;;11.70;7.20;;;1.20;99.90;;;;;;5084059;28;20208;-70
2023/03/02 04:57:57;;;;;;;8.67;6.90;;;1.20;99.90;;;;;;5080407;28;20260;-73
2023/03/02 05:00:27;;;;;;;10.07;6.40;;;1.20;99.90;;;;;;5074739;28;20670;-70
2023/03/02 05:02:57;;;;;;;10.33;7.27;;;1.20;99.90;;;;;;5074777;28;20267;-73
2023/03/02 05:05:26;;;;;;;11.87;7.77;;;1.20;99.90;;;;;;5074722;28;20200;-70
2023/03/02 05:07:57;;;;;;;9.93;6.80;;;1.30;99.90;;;;;;5074700;28;20222;-72
2023/03/02 05:10:27;;;;;;;11.87;6.83;;;1.30;99.90;;;;;;5074516;28;20197;-73
2023/03/02 05:12:57;;;;;;;13.13;7.13;;;1.20;99.90;;;;;;5074621;28;20221;-73
2023/03/02 05:15:29;;;;;;;12.40;8.13;;;1.30;99.90;;;;;;5074596;28;20272;-74
2023/03/02 05:17:57;;;;;;;13.80;7.33;;;1.30;99.90;;;;;;5074685;28;20200;-69
2023/03/02 05:20:29;;;;;;;13.20;7.90;;;1.40;99.90;;;;;;5074516;28;20280;-69
2023/03/02 05:22:59;;;;;;;16.60;7.87;;;1.40;99.90;;;;;;5078649;28;20201;-69
2023/03/02 05:25:30;;;;;;;13.30;7.87;;;1.40;99.90;;;;;;5088672;28;20554;-71
2023/03/02 05:27:59;;;;;;;10.90;6.80;;;1.40;99.90;;;;;;5074404;28;20193;-70
2023/03/02 05:30:31;;;;;;;14.67;6.97;;;1.40;99.90;;;;;;5076868;28;20190;-70
2023/03/02 05:33:00;;;;;;;13.07;7.17;;;1.50;99.90;;;;;;5094575;28;20252;-70
2023/03/02 05:35:28;;;;;;;14.53;6.63;;;1.50;99.90;;;;;;5094133;28;20221;-70
2023/03/02 05:37:57;;;;;;;15.77;8.33;;;1.50;99.90;;;;;;5094530;28;20612;-71
2023/03/02 05:40:26;;;;;;;12.77;6.60;;;1.50;99.90;;;;;;5094318;28;20293;-70
2023/03/02 05:42:55;;;;;;;12.63;6.40;;;1.50;99.90;;;;;;5088486;28;20192;-70
2023/03/02 05:45:27;;;;;;;15.63;7.33;;;1.60;99.90;;;;;;5093821;28;20262;-69
2023/03/02 05:47:57;;;;;;;10.53;6.60;;;1.60;99.90;;;;;;5093393;28;20742;-71
2023/03/02 05:50:26;;;;;;;14.10;7.37;;;1.60;99.90;;;;;;5094100;28;20205;-71
2023/03/02 05:52:55;;;;;;;12.30;7.30;;;1.60;99.90;;;;;;5093991;28;20685;-70
2023/03/02 05:55:24;;;;;;;9.97;6.40;;;1.70;99.90;;;;;;5093910;28;20216;-72
2023/03/02 05:57:53;;;;;;;8.80;5.87;;;1.50;99.90;;;;;;5094209;28;20216;-71
2023/03/02 06:00:22;;;;;;;11.77;7.23;;;1.50;99.90;;;;;;5094045;28;20283;-70
2023/03/02 06:02:51;;;;;;;11.67;7.00;;;1.50;99.90;;;;;;5093969;28;20200;-71
2023/03/02 06:05:23;;;;;;;12.40;7.30;;;1.60;99.90;;;;;;5093923;28;20594;-69
2023/03/02 06:07:52;;;;;;;12.10;7.47;;;1.60;99.90;;;;;;5093910;28;20200;-71
2023/03/02 06:10:21;;;;;;;11.97;7.03;;;1.60;99.90;;;;;;5093780;28;20189;-70
2023/03/02 06:12:50;;;;;;;11.60;7.93;;;1.60;99.90;;;;;;5093772;28;20246;-70
2023/03/02 06:15:19;;;;;;;14.13;6.90;;;1.60;99.90;;;;;;5093702;28;20549;-72
2023/03/02 06:17:48;;;;;;;12.83;7.90;;;1.70;99.90;;;;;;5093495;28;20196;-70
2023/03/02 06:20:18;;;;;;;15.73;8.00;;;1.80;99.90;;;;;;5092742;28;20196;-70
2023/03/02 06:22:48;;;;;;;18.37;8.23;;;1.80;99.90;;;;;;5093466;28;20651;-69
2023/03/02 06:25:19;;;;;;;15.37;8.00;;;1.80;99.90;;;;;;5093350;28;20197;-70
2023/03/02 06:27:50;;;;;;;15.23;8.07;;;1.90;99.90;;;;;;5093361;28;20199;-73
2023/03/02 06:30:21;;;;;;;12.43;7.17;;;1.80;99.90;;;;;;5091844;28;20206;-69
2023/03/02 06:32:50;;;;;;;15.00;8.17;;;1.90;99.90;;;;;;5092966;28;20194;-69
2023/03/02 06:35:19;;;;;;;17.37;8.10;;;1.90;99.90;;;;;;5076197;28;20721;-70
2023/03/02 06:37:49;;;;;;;12.93;7.03;;;2.00;99.90;;;;;;5093249;28;20194;-71
2023/03/02 06:40:20;;;;;;;13.17;7.90;;;2.20;99.90;;;;;;5093038;28;20305;-68
2023/03/02 06:42:49;;;;;;;16.23;9.33;;;2.20;99.90;;;;;;5093142;28;20203;-70
2023/03/02 06:45:18;;;;;;;15.00;9.13;;;2.30;99.90;;;;;;5093145;28;20650;-70
2023/03/02 06:47:47;;;;;;;20.23;10.37;;;2.40;99.90;;;;;;5092943;28;20666;-69
2023/03/02 06:50:15;;;;;;;17.67;8.00;;;2.50;99.90;;;;;;5093100;28;20232;-70
2023/03/02 06:52:44;;;;;;;16.87;8.30;;;2.50;99.90;;;;;;5093061;28;20212;-71
2023/03/02 06:55:14;;;;;;;14.10;8.70;;;2.50;99.90;;;;;;5092752;28;20216;-70
2023/03/02 06:57:43;;;;;;;14.87;9.20;;;2.50;99.90;;;;;;5092638;28;20289;-71
2023/03/02 07:00:16;;;;;;;14.50;8.83;;;2.60;99.90;;;;;;5091500;28;20218;-71
2023/03/02 07:02:45;;;;;;;16.37;8.83;;;2.60;99.90;;;;;;5093593;28;20209;-69
2023/03/02 07:05:14;;;;;;;15.40;9.30;;;2.60;99.90;;;;;;5092809;28;20232;-71
2023/03/02 07:07:43;;;;;;;20.07;10.70;;;2.60;99.90;;;;;;5092782;28;20214;-71
2023/03/02 07:10:12;;;;;;;17.43;9.73;;;2.70;99.90;;;;;;5092391;28;20205;-71
2023/03/02 07:12:43;;;;;;;13.87;9.33;;;2.80;99.90;;;;;;5092601;28;20280;-73
2023/03/02 07:15:13;;;;;;;17.83;10.43;;;2.80;99.90;;;;;;5092452;28;20744;-70
2023/03/02 07:17:43;;;;;;;16.23;9.73;;;2.90;99.90;;;;;;5092364;28;20276;-70
2023/03/02 07:20:14;;;;;;;15.00;9.80;;;3.00;99.90;;;;;;5092298;28;20657;-71
2023/03/02 07:22:44;;;;;;;17.00;9.83;;;3.10;99.90;;;;;;5091597;28;20196;-70
2023/03/02 07:25:13;;;;;;;18.53;9.87;;;3.00;99.90;;;;;;5092295;28;20226;-72
2023/03/02 07:27:43;;;;;;;15.10;9.33;;;3.00;99.90;;;;;;5092183;28;20275;-71
2023/03/02 07:30:13;;;;;;;13.27;9.03;;;3.10;99.90;;;;;;5091202;28;20327;-71
2023/03/02 07:32:42;;;;;;;23.63;11.30;;;3.00;99.90;;;;;;5084224;28;20205;-73
2023/03/02 07:35:11;;;;;;;18.40;9.57;;;3.00;99.90;;;;;;5089161;28;20320;-71
2023/03/02 07:37:40;;;;;;;14.20;9.00;;;3.00;99.90;;;;;;5092449;28;20188;-71
2023/03/02 07:40:11;;;;;;;16.93;9.77;;;3.20;99.90;;;;;;5092494;28;20607;-71
2023/03/02 07:42:40;;;;;;;15.67;10.13;;;3.30;99.90;;;;;;5092339;28;20197;-71
2023/03/02 07:45:12;;;;;;;14.60;8.23;;;3.20;99.90;;;;;;5073627;28;20189;-74
2023/03/02 07:47:41;;;;;;;12.63;8.00;;;3.20;99.90;;;;;;5092150;28;20309;-72
2023/03/02 07:50:11;;;;;;;12.10;8.53;;;3.30;99.90;;;;;;5092528;28;20242;-70
2023/03/02 07:52:40;;;;;;;13.43;8.53;;;3.30;99.90;;;;;;5092428;28;20193;-72
2023/03/02 07:55:09;;;;;;;15.70;9.90;;;3.30;99.90;;;;;;5092162;28;20223;-71
2023/03/02 07:57:38;;;;;;;15.73;8.93;;;3.40;99.90;;;;;;5092048;28;20723;-72
2023/03/02 08:00:08;;;;;;;14.40;9.67;;;3.40;99.90;;;;;;5091705;28;20558;-75
2023/03/02 08:02:42;;;;;;;13.80;8.53;;;3.30;99.90;;;;;;5092272;28;20199;-70
2023/03/02 08:05:12;;;;;;;18.57;10.57;;;3.20;99.90;;;;;;5091959;28;20194;-71
2023/03/02 08:07:41;;;;;;;17.90;10.10;;;3.30;99.90;;;;;;5092019;28;20188;-69
2023/03/02 08:10:11;;;;;;;15.33;10.07;;;3.40;99.90;;;;;;5091897;28;20284;-71
2023/03/02 08:12:41;;;;;;;16.77;10.40;;;3.50;99.90;;;;;;5091931;28;20192;-71
2023/03/02 08:15:11;;;;;;;14.37;9.90;;;3.60;99.90;;;;;;5090743;28;20230;-71
2023/03/02 08:17:42;;;;;;;14.17;9.40;;;3.60;99.90;;;;;;5091817;28;20195;-72
2023/03/02 08:20:12;;;;;;;16.37;9.83;;;3.60;99.90;;;;;;5090917;28;20679;-70
2023/03/02 08:22:40;;;;;;;26.03;14.20;;;3.70;99.90;;;;;;5092094;28;20241;-71
2023/03/02 08:25:09;;;;;;;16.90;10.90;;;3.80;99.90;;;;;;5091988;28;20248;-72
2023/03/02 08:27:39;;;;;;;24.63;14.30;;;3.90;99.90;;;;;;5091604;28;20202;-71
2023/03/02 08:30:09;;;;;;;19.53;12.77;;;4.00;99.90;;;;;;5091573;28;20223;-73
2023/03/02 08:32:38;;;;;;;15.90;9.70;;;4.10;99.90;;;;;;5091769;28;20196;-72
2023/03/02 08:35:09;;;;;;;13.27;8.77;;;4.10;99.90;;;;;;5091475;28;20635;-72
2023/03/02 08:37:38;;;;;;;13.37;8.53;;;4.00;99.90;;;;;;5091394;28;20575;-73
2023/03/02 08:40:08;;;;;;;12.70;8.73;;;4.00;99.90;;;;;;5090064;28;20197;-74
2023/03/02 08:42:37;;;;;;;14.30;8.97;;;4.00;99.90;;;;;;5088173;28;20560;-72
2023/03/02 08:45:07;;;;;;;13.70;8.50;;;4.00;99.90;;;;;;5084636;28;20238;-72
2023/03/02 08:47:36;;;;;;;11.27;8.43;;;4.00;99.90;;;;;;5083876;28;20751;-73
2023/03/02 08:50:06;;;;;;;10.53;6.80;;;3.80;99.90;;;;;;5071360;28;20206;-71
2023/03/02 08:52:36;;;;;;;8.57;7.17;;;3.80;99.90;;;;;;5071368;28;20225;-74
2023/03/02 08:55:06;;;;;;;10.80;7.83;;;3.80;99.90;;;;;;5071376;28;20298;-71
2023/03/02 08:57:35;;;;;;;10.47;7.47;;;3.80;99.90;;;;;;5070612;28;20246;-72
2023/03/02 09:00:07;;;;;;;13.00;8.57;;;3.90;99.90;;;;;;5071364;28;20680;-72
2023/03/02 09:02:36;;;;;;;13.23;8.43;;;3.90;99.90;;;;;;5071479;28;20195;-71
2023/03/02 09:05:05;;;;;;;62.93;32.77;;;4.00;99.90;;;;;;5088228;28;20214;-72
2023/03/02 09:07:36;;;;;;;12.13;9.00;;;4.10;99.90;;;;;;5091537;28;20222;-73
2023/03/02 09:10:05;;;;;;;12.30;8.13;;;4.10;99.90;;;;;;5091595;28;20192;-70
2023/03/02 09:12:34;;;;;;;11.53;8.40;;;4.00;99.90;;;;;;5090633;28;20212;-71
2023/03/02 09:15:03;;;;;;;12.10;8.27;;;4.00;99.90;;;;;;5088156;28;20221;-70
2023/03/02 09:17:32;;;;;;;11.17;8.20;;;3.90;99.90;;;;;;5078267;28;20252;-69
2023/03/02 09:20:01;;;;;;;12.70;9.17;;;3.90;99.90;;;;;;5091482;28;20201;-68
2023/03/02 09:22:30;;;;;;;12.80;8.80;;;3.80;99.90;;;;;;5093179;28;20204;-70
2023/03/02 09:25:00;;;;;;;15.13;9.10;;;3.80;99.90;;;;;;5095066;28;20207;-71
2023/03/02 09:27:29;;;;;;;12.73;8.40;;;3.80;99.90;;;;;;5094278;28;20729;-71
2023/03/02 09:29:58;;;;;;;15.70;9.53;;;3.90;99.90;;;;;;5094954;28;20196;-73
2023/03/02 09:32:27;;;;;;;13.40;8.70;;;4.00;99.90;;;;;;5094874;28;20249;-71
2023/03/02 09:34:56;;;;;;;10.50;7.87;;;4.10;99.90;;;;;;5094451;28;20622;-72
2023/03/02 09:37:25;;;;;;;13.87;9.50;;;4.10;99.90;;;;;;5092298;28;20214;-73
2023/03/02 09:39:53;;;;;;;15.83;9.80;;;4.20;99.90;;;;;;5086308;28;20198;-72
2023/03/02 09:42:58;;;;;;;12.80;8.93;;;4.10;99.90;;;;;;5083199;28;20195;-73
2023/03/02 09:45:51;;;;;;;15.57;10.47;;;4.00;99.90;;;;;;5077251;28;20600;-71
2023/03/02 09:48:28;;;;;;;12.30;8.40;;;4.10;99.90;;;;;;5091759;28;20233;-71
2023/03/02 09:51:07;;;;;;;12.17;8.13;;;4.30;99.90;;;;;;5094623;28;20201;-71
2023/03/02 09:53:43;;;;;;;12.33;9.03;;;4.40;99.90;;;;;;5094692;28;20205;-72
2023/03/02 09:56:16;;;;;;;11.30;8.33;;;4.40;99.90;;;;;;5093719;28;20589;-73
2023/03/02 09:58:52;;;;;;;11.37;8.33;;;4.20;99.90;;;;;;5094487;28;20302;-70
2023/03/02 10:01:40;;;;;;;12.20;9.03;;;4.30;99.90;;;;;;5094517;28;20201;-69
2023/03/02 10:04:21;;;;;;;10.40;7.80;;;4.50;99.90;;;;;;5094454;28;20206;-71
2023/03/02 10:06:56;;;;;;;9.90;7.70;;;4.50;99.90;;;;;;5094473;28;20221;-72
2023/03/02 10:09:25;;;;;;;9.07;7.17;;;4.30;99.90;;;;;;5094183;28;20203;-71
2023/03/02 10:12:14;;;;;;;14.27;8.90;;;4.30;99.90;;;;;;5093612;28;20225;-72
2023/03/02 10:14:49;;;;;;;13.40;10.40;;;4.10;99.90;;;;;;5094161;28;20211;-70
2023/03/02 10:17:34;;;;;;;18.10;9.50;;;4.20;99.90;;;;;;5094187;28;20206;-72
2023/03/02 10:20:07;;;;;;;13.60;9.73;;;4.10;99.90;;;;;;5093859;28;20569;-71
2023/03/02 10:22:39;;;;;;;11.33;9.67;;;4.00;99.90;;;;;;5094013;28;20206;-70
2023/03/02 10:25:20;;;;;;;12.80;9.80;;;4.00;99.90;;;;;;5093360;28;20206;-73
2023/03/02 10:27:52;;;;;;;15.60;10.23;;;3.90;99.90;;;;;;5093417;28;20207;-71
2023/03/02 10:30:29;;;;;;;14.57;10.70;;;3.90;99.90;;;;;;5093809;28;20301;-71
2023/03/02 10:33:02;;;;;;;17.40;10.17;;;4.00;99.90;;;;;;5090680;28;20210;-71
2023/03/02 10:35:31;;;;;;;49.27;24.07;;;4.10;99.90;;;;;;5082227;28;20220;-71
2023/03/02 10:38:07;;;;;;;15.60;9.07;;;4.30;99.90;;;;;;5073146;28;20194;-72
2023/03/02 10:40:41;;;;;;;13.43;8.70;;;4.30;99.90;;;;;;5079888;28;20236;-69
2023/03/02 10:43:17;;;;;;;14.80;10.27;;;4.40;99.90;;;;;;5076695;28;20206;-69
2023/03/02 10:45:59;;;;;;;12.57;10.47;;;4.60;99.90;;;;;;5075489;28;20684;-73
2023/03/02 10:48:28;;;;;;;15.87;10.60;;;4.50;99.90;;;;;;5092543;28;20241;-72
2023/03/02 10:50:59;;;;;;;14.47;9.73;;;4.60;99.90;;;;;;5092824;28;20687;-75
2023/03/02 10:53:28;;;;;;;14.20;10.57;;;4.60;99.90;;;;;;5080599;28;20259;-72
2023/03/02 10:55:57;;;;;;;17.00;10.57;;;4.50;99.90;;;;;;5086617;28;20658;-72
2023/03/02 10:58:30;;;;;;;13.70;11.10;;;4.60;99.90;;;;;;5092352;28;20649;-72
2023/03/02 11:01:02;;;;;;;17.10;11.07;;;4.60;99.90;;;;;;5092743;28;20199;-72
2023/03/02 11:03:32;;;;;;;14.13;10.20;;;4.60;99.90;;;;;;5092409;28;20253;-72
2023/03/02 11:06:21;;;;;;;12.47;9.13;;;4.50;99.90;;;;;;5092439;28;20203;-73
2023/03/02 11:08:59;;;;;;;14.10;9.80;;;4.70;99.90;;;;;;5092318;28;20670;-72
2023/03/02 11:11:28;;;;;;;17.00;10.37;;;4.70;99.90;;;;;;5010163;28;20269;-73
2023/03/02 11:14:08;;;;;;;13.70;8.63;;;4.60;99.90;;;;;;5010197;28;20689;-70
2023/03/02 11:16:39;;;;;;;14.63;8.43;;;4.60;99.90;;;;;;5009852;28;20237;-73
2023/03/02 11:19:14;;;;;;;12.87;8.70;;;4.60;99.90;;;;;;5010126;28;20263;-71
2023/03/02 11:21:47;;;;;;;12.87;8.13;;;4.80;99.90;;;;;;5010061;28;20208;-70
2023/03/02 11:24:21;;;;;;;11.93;8.67;;;4.70;99.90;;;;;;5010241;28;20211;-72
2023/03/02 11:26:54;;;;;;;10.00;7.93;;;4.70;99.90;;;;;;5009848;28;20207;-72
2023/03/02 11:29:31;;;;;;;11.63;7.87;;;4.60;99.90;;;;;;5039374;28;20237;-72
2023/03/02 11:32:11;;;;;;;10.07;7.60;;;4.50;99.90;;;;;;5092978;28;20196;-71
2023/03/02 11:34:46;;;;;;;13.07;8.27;;;4.60;99.90;;;;;;5092010;28;20205;-72
2023/03/02 11:37:19;;;;;;;11.43;8.07;;;4.70;99.90;;;;;;5091571;28;20227;-72
2023/03/02 11:40:05;;;;;;;10.40;8.00;;;4.80;99.90;;;;;;5091821;28;20216;-72
2023/03/02 11:42:37;;;;;;;13.17;8.30;;;4.90;99.90;;;;;;5091860;28;20623;-73
2023/03/02 11:45:17;;;;;;;12.07;8.93;;;4.80;99.90;;;;;;5091559;28;20200;-72
2023/03/02 11:47:53;;;;;;;10.90;8.57;;;4.70;99.90;;;;;;5070250;28;20235;-73
2023/03/02 11:50:32;;;;;;;13.47;9.40;;;4.70;99.90;;;;;;5071491;28;20228;-72
2023/03/02 11:53:07;;;;;;;12.67;9.33;;;4.80;99.90;;;;;;5071571;28;20214;-72
2023/03/02 11:55:43;;;;;;;13.73;8.80;;;5.10;99.90;;;;;;5071626;28;20294;-71
2023/03/02 11:58:17;;;;;;;15.87;10.33;;;5.30;99.90;;;;;;5071355;28;20200;-72
2023/03/02 12:00:48;;;;;;;14.73;9.60;;;5.30;99.90;;;;;;5071439;28;20665;-73
2023/03/02 12:03:36;;;;;;;13.77;9.40;;;5.00;99.90;;;;;;5071596;28;20549;-71
2023/03/02 12:06:07;;;;;;;12.80;9.40;;;5.00;99.90;;;;;;5068267;28;20201;-72
2023/03/02 12:08:39;;;;;;;13.80;9.77;;;4.90;99.90;;;;;;5066509;28;20203;-72
2023/03/02 12:11:32;;;;;;;18.57;9.77;;;5.00;99.90;;;;;;5091462;28;20317;-75
2023/03/02 12:14:04;;;;;;;12.13;9.03;;;5.00;99.90;;;;;;5091258;28;20247;-71
2023/03/02 12:16:39;;;;;;;16.67;9.70;;;5.00;99.90;;;;;;5082416;28;20228;-70
2023/03/02 12:19:26;;;;;;;13.40;8.97;;;5.10;99.90;;;;;;5053204;28;20204;-71
2023/03/02 12:22:00;;;;;;;15.77;9.90;;;4.90;99.90;;;;;;5051095;28;20295;-71
2023/03/02 12:24:32;;;;;;;13.83;9.43;;;4.90;99.90;;;;;;5052586;28;20712;-71
2023/03/02 12:27:03;;;;;;;14.03;9.40;;;5.00;99.90;;;;;;5066522;28;20539;-71
2023/03/02 12:29:40;;;;;;;13.73;9.97;;;5.00;99.90;;;;;;5070852;28;20204;-69
2023/03/02 12:32:21;;;;;;;21.70;12.67;;;5.10;99.90;;;;;;5071292;28;20676;-71
2023/03/02 12:34:56;;;;;;;14.43;10.23;;;5.20;99.90;;;;;;5070901;28;20238;-72
2023/03/02 12:37:28;;;;;;;14.03;10.50;;;5.30;99.90;;;;;;5059934;28;20224;-68
2023/03/02 12:40:27;;;;;;;13.07;9.37;;;5.40;99.90;;;;;;5051003;28;20200;-73
2023/03/02 12:43:25;;;;;;;16.93;9.80;;;5.50;99.90;;;;;;5057421;28;20203;-71
2023/03/02 12:46:21;;;;;;;14.83;9.93;;;5.40;99.90;;;;;;4989580;28;20668;-73
2023/03/02 12:48:58;;;;;;;15.13;10.23;;;5.30;99.90;;;;;;4988602;28;20328;-72
2023/03/02 12:51:32;;;;;;;16.43;10.90;;;5.30;99.90;;;;;;5009111;28;20226;-71
2023/03/02 12:54:06;;;;;;;16.67;10.33;;;5.30;99.90;;;;;;5009074;28;20200;-74
2023/03/02 12:56:35;;;;;;;14.17;9.93;;;5.40;99.90;;;;;;5009442;28;20228;-72
2023/03/02 12:59:05;;;;;;;15.67;9.80;;;5.50;99.90;;;;;;5012725;28;20207;-71
2023/03/02 13:01:34;;;;;;;15.87;10.87;;;5.50;99.90;;;;;;5012986;28;20229;-72
2023/03/02 13:04:03;;;;;;;12.60;8.73;;;5.40;99.90;;;;;;5012750;28;20605;-71
2023/03/02 13:06:38;;;;;;;13.17;9.97;;;5.40;99.90;;;;;;5012764;28;20249;-71